Time;durP1;ratioP1;P1;durP2;ratioP2;P2;SDS_P1;SDS_P2;PMS_P1;PMS_P2;Temp;Humidity;BMP_temperature;BMP_pressure;BME280_temperature;BME280_humidity;BME280_pressure;Samples;Min_cycle;Max_cycle;Signal;HPM_P1;HPM_P2
2022/08/28 00:01:00;;;;;;;8.43;4.35;;;;;;;;;;2025327;29;20021;-89
2022/08/28 00:02:01;;;;;;;6.88;4.05;;;;;;;;;;2017632;29;20029;-88
2022/08/28 00:03:01;;;;;;;10.25;4.80;;;;;;;;;;2025458;29;20468;-89
2022/08/28 00:04:02;;;;;;;6.07;4.13;;;;;;;;;;2025307;29;20044;-88
2022/08/28 00:05:05;;;;;;;5.82;3.90;;;;;;;;;;2025379;29;20021;-88
2022/08/28 00:06:05;;;;;;;8.57;4.43;;;;;;;;;;2033893;29;20028;-88
2022/08/28 00:07:06;;;;;;;8.07;4.40;;;;;;;;;;2033997;29;20111;-88
2022/08/28 00:08:09;;;;;;;11.95;4.43;;;;;;;;;;2033865;29;20385;-88
2022/08/28 00:09:09;;;;;;;10.88;4.18;;;;;;;;;;2033792;29;20044;-88
2022/08/28 00:10:12;;;;;;;9.68;3.90;;;;;;;;;;2033879;29;20027;-89
2022/08/28 00:11:13;;;;;;;11.40;4.22;;;;;;;;;;2025139;29;20029;-89
2022/08/28 00:12:13;;;;;;;8.55;4.05;;;;;;;;;;2025482;29;20024;-88
2022/08/28 00:13:17;;;;;;;8.20;4.47;;;;;;;;;;2025247;29;20025;-89
2022/08/28 00:14:19;;;;;;;7.82;4.68;;;;;;;;;;2017904;29;20156;-88
2022/08/28 00:15:24;;;;;;;10.02;5.22;;;;;;;;;;2025472;29;20551;-88
2022/08/28 00:16:25;;;;;;;9.80;4.60;;;;;;;;;;2025248;29;20035;-88
2022/08/28 00:17:25;;;;;;;6.05;3.90;;;;;;;;;;2025330;29;20067;-89
2022/08/28 00:18:27;;;;;;;9.95;3.65;;;;;;;;;;2025349;29;20595;-89
2022/08/28 00:19:28;;;;;;;7.68;3.55;;;;;;;;;;2025358;29;20068;-89
2022/08/28 00:20:30;;;;;;;9.63;4.00;;;;;;;;;;2025269;29;20033;-89
2022/08/28 00:21:32;;;;;;;8.90;4.05;;;;;;;;;;2025410;29;20032;-88
2022/08/28 00:22:32;;;;;;;8.88;4.30;;;;;;;;;;2025322;29;20028;-88
2022/08/28 00:23:33;;;;;;;9.45;4.15;;;;;;;;;;2025232;29;20048;-89
2022/08/28 00:24:33;;;;;;;7.57;3.72;;;;;;;;;;2033859;29;20040;-88
2022/08/28 00:25:35;;;;;;;8.90;4.45;;;;;;;;;;2025242;29;20071;-88
2022/08/28 00:27:56;;;;;;;8.55;3.70;;;;;;;;;;2033823;29;20475;-88
2022/08/28 00:28:57;;;;;;;10.30;4.22;;;;;;;;;;2033796;29;20026;-88
2022/08/28 00:29:58;;;;;;;8.63;4.43;;;;;;;;;;2033741;29;20412;-88
2022/08/28 00:30:59;;;;;;;6.05;4.22;;;;;;;;;;2025324;29;20032;-88
2022/08/28 00:31:59;;;;;;;8.70;4.32;;;;;;;;;;2025310;29;20777;-88
2022/08/28 00:33:04;;;;;;;7.47;3.83;;;;;;;;;;2033570;29;20027;-89
2022/08/28 00:34:06;;;;;;;8.27;4.10;;;;;;;;;;2025289;29;20119;-88
2022/08/28 00:35:06;;;;;;;9.98;4.10;;;;;;;;;;2025583;29;20745;-88
2022/08/28 00:36:07;;;;;;;6.05;4.00;;;;;;;;;;2025053;29;20025;-88
2022/08/28 00:37:07;;;;;;;8.13;4.60;;;;;;;;;;2017433;29;20033;-89
2022/08/28 00:38:10;;;;;;;7.22;3.92;;;;;;;;;;2025127;29;20035;-88
2022/08/28 00:39:10;;;;;;;5.97;4.10;;;;;;;;;;2033558;29;20072;-88
2022/08/28 00:40:14;;;;;;;6.78;4.72;;;;;;;;;;2025102;29;20024;-88
2022/08/28 00:41:15;;;;;;;8.75;3.83;;;;;;;;;;2025622;29;20021;-89
2022/08/28 00:42:17;;;;;;;9.68;4.80;;;;;;;;;;1717051;29;10378525;-89
2022/08/28 00:43:36;;;;;;;8.15;4.25;;;;;;;;;;2025171;29;20725;-89
2022/08/28 00:44:37;;;;;;;7.68;4.00;;;;;;;;;;2033530;29;20024;-89
2022/08/28 00:45:37;;;;;;;7.85;4.15;;;;;;;;;;2025264;29;20033;-89
2022/08/28 00:46:38;;;;;;;6.35;4.28;;;;;;;;;;2025285;29;20549;-88
2022/08/28 00:47:39;;;;;;;9.60;4.10;;;;;;;;;;2033608;29;20032;-88
2022/08/28 00:48:40;;;;;;;7.28;4.20;;;;;;;;;;2025304;29;20036;-88
2022/08/28 00:49:53;;;;;;;7.28;4.35;;;;;;;;;;2017824;29;20033;-88
2022/08/28 00:52:14;;;;;;;6.63;4.22;;;;;;;;;;2027719;29;20096;-88
2022/08/28 00:53:15;;;;;;;7.95;4.30;;;;;;;;;;2024884;29;20036;-88
2022/08/28 00:54:18;;;;;;;5.78;3.92;;;;;;;;;;2017212;29;20025;-88
2022/08/28 00:55:22;;;;;;;8.13;4.15;;;;;;;;;;2025251;29;20033;-88
2022/08/28 00:56:22;;;;;;;8.77;4.10;;;;;;;;;;2024952;29;20025;-87
2022/08/28 00:57:27;;;;;;;10.27;3.40;;;;;;;;;;2024870;29;20039;-88
2022/08/28 00:58:28;;;;;;;7.03;4.10;;;;;;;;;;2024883;29;20118;-89
2022/08/28 00:59:28;;;;;;;7.85;5.03;;;;;;;;;;2017157;29;20025;-88
2022/08/28 01:00:34;;;;;;;12.68;4.50;;;;;;;;;;2017142;29;20032;-88
2022/08/28 01:01:37;;;;;;;6.97;4.00;;;;;;;;;;2025651;29;20037;-87
2022/08/28 01:02:37;;;;;;;8.38;4.25;;;;;;;;;;2025169;29;20107;-88
2022/08/28 01:03:38;;;;;;;8.07;4.38;;;;;;;;;;2017174;29;20160;-88
2022/08/28 01:04:39;;;;;;;9.38;4.25;;;;;;;;;;2024971;29;20033;-88
2022/08/28 01:05:42;;;;;;;10.13;4.15;;;;;;;;;;2033443;29;20388;-88
2022/08/28 01:06:51;;;;;;;7.85;3.90;;;;;;;;;;2024868;29;20048;-88
2022/08/28 01:07:52;;;;;;;6.88;3.83;;;;;;;;;;2018226;29;20124;-87
2022/08/28 01:08:53;;;;;;;9.23;4.20;;;;;;;;;;2025269;29;20039;-87
2022/08/28 01:09:54;;;;;;;;;;;;;;;;;;1685130;29;10269272;-87
2022/08/28 01:10:58;;;;;;;7.75;4.13;;;;;;;;;;2033290;29;19910;-87
2022/08/28 01:12:05;;;;;;;7.95;3.97;;;;;;;;;;1678869;29;10238699;-86
2022/08/28 01:13:05;;;;;;;7.32;4.28;;;;;;;;;;2017909;29;20027;-86
2022/08/28 01:14:07;;;;;;;6.47;4.05;;;;;;;;;;2017088;29;20022;-85
2022/08/28 01:15:12;;;;;;;8.60;4.30;;;;;;;;;;2025078;29;20028;-87
2022/08/28 01:16:14;;;;;;;5.80;4.00;;;;;;;;;;2033214;29;20020;-87
2022/08/28 01:17:16;;;;;;;8.55;4.28;;;;;;;;;;2033276;29;20016;-86
2022/08/28 01:18:18;;;;;;;9.80;3.95;;;;;;;;;;2033222;29;20036;-87
2022/08/28 01:19:25;;;;;;;11.93;4.47;;;;;;;;;;2024932;29;20033;-87
2022/08/28 01:20:28;;;;;;;7.47;3.92;;;;;;;;;;2025563;29;20393;-88
2022/08/28 01:21:59;;;;;;;7.50;3.80;;;;;;;;;;2033249;29;20020;-87
2022/08/28 01:23:21;;;;;;;5.78;4.78;;;;;;;;;;2033186;29;20027;-88
2022/08/28 01:24:22;;;;;;;5.72;3.88;;;;;;;;;;2024879;29;20047;-88
2022/08/28 01:25:24;;;;;;;7.88;3.90;;;;;;;;;;2024901;29;20035;-88
2022/08/28 01:26:27;;;;;;;12.85;4.60;;;;;;;;;;2024931;29;20034;-88
2022/08/28 01:27:28;;;;;;;7.88;3.95;;;;;;;;;;2024781;29;20029;-88
2022/08/28 01:28:28;;;;;;;9.85;4.65;;;;;;;;;;2017057;29;20032;-87
2022/08/28 01:29:29;;;;;;;8.13;4.00;;;;;;;;;;2024759;29;20572;-88
2022/08/28 01:30:31;;;;;;;8.10;4.50;;;;;;;;;;2033157;29;20074;-88
2022/08/28 01:31:31;;;;;;;9.18;4.45;;;;;;;;;;2024597;29;20032;-88
2022/08/28 01:32:37;;;;;;;8.15;4.93;;;;;;;;;;2016985;29;20505;-88
2022/08/28 01:33:38;;;;;;;11.45;4.10;;;;;;;;;;2017559;29;20021;-88
2022/08/28 01:34:39;;;;;;;5.13;3.92;;;;;;;;;;2025022;29;20055;-88
2022/08/28 01:35:43;;;;;;;9.65;4.35;;;;;;;;;;2024793;29;20032;-88
2022/08/28 01:36:43;;;;;;;11.52;4.47;;;;;;;;;;2024568;29;20025;-88
2022/08/28 01:37:44;;;;;;;11.68;4.10;;;;;;;;;;2016704;29;20025;-88
2022/08/28 01:38:48;;;;;;;11.52;4.15;;;;;;;;;;2024692;29;20050;-89
2022/08/28 01:39:49;;;;;;;5.45;3.33;;;;;;;;;;2033076;29;20039;-89
2022/08/28 01:40:52;;;;;;;9.50;4.25;;;;;;;;;;2033254;29;20031;-89
2022/08/28 01:41:54;;;;;;;8.27;4.03;;;;;;;;;;2024572;29;20028;-89
2022/08/28 01:42:54;;;;;;;8.10;4.82;;;;;;;;;;2024704;29;20048;-89
2022/08/28 01:43:55;;;;;;;5.75;4.20;;;;;;;;;;2024693;29;20028;-89
2022/08/28 01:44:56;;;;;;;12.63;5.25;;;;;;;;;;2024666;29;20438;-89
2022/08/28 01:46:03;;;;;;;8.15;4.05;;;;;;;;;;1812626;29;10324786;-89
2022/08/28 01:47:03;;;;;;;7.05;3.78;;;;;;;;;;2024561;29;20799;-88
2022/08/28 01:48:06;;;;;;;9.68;4.38;;;;;;;;;;2024732;29;20036;-88
2022/08/28 01:49:10;;;;;;;7.20;4.18;;;;;;;;;;2032984;29;20031;-88
2022/08/28 01:50:14;;;;;;;10.02;4.13;;;;;;;;;;2024738;29;20029;-88
2022/08/28 01:51:15;;;;;;;9.48;4.40;;;;;;;;;;2024487;29;20028;-88
2022/08/28 01:52:16;;;;;;;8.07;4.10;;;;;;;;;;2024751;29;20364;-89
2022/08/28 01:53:19;;;;;;;7.30;3.90;;;;;;;;;;2032820;29;20038;-88
2022/08/28 01:54:19;;;;;;;8.55;4.15;;;;;;;;;;2032515;29;20039;-88
2022/08/28 01:55:20;;;;;;;7.15;4.05;;;;;;;;;;2033073;29;20036;-88
2022/08/28 01:56:20;;;;;;;8.55;4.40;;;;;;;;;;2030496;29;20087;-89
2022/08/28 01:57:21;;;;;;;8.95;4.18;;;;;;;;;;2027308;29;20035;-89
2022/08/28 01:58:22;;;;;;;7.13;4.20;;;;;;;;;;2023164;29;20028;-89
2022/08/28 01:59:22;;;;;;;5.63;3.72;;;;;;;;;;2017124;29;20036;-89
2022/08/28 02:00:26;;;;;;;8.00;4.22;;;;;;;;;;2024850;29;20088;-89
2022/08/28 02:01:26;;;;;;;8.93;4.28;;;;;;;;;;2024493;29;20024;-89
2022/08/28 02:02:27;;;;;;;10.20;4.43;;;;;;;;;;2024790;29;20021;-89
2022/08/28 02:03:28;;;;;;;10.25;4.20;;;;;;;;;;2025362;29;20029;-88
2022/08/28 02:04:28;;;;;;;9.18;3.83;;;;;;;;;;2025223;29;20036;-89
2022/08/28 02:05:31;;;;;;;6.10;3.42;;;;;;;;;;2025336;29;20052;-88
2022/08/28 02:06:32;;;;;;;10.63;4.28;;;;;;;;;;2024501;29;20121;-89
2022/08/28 02:07:33;;;;;;;10.73;4.20;;;;;;;;;;2024481;29;20038;-89
2022/08/28 02:08:35;;;;;;;10.65;4.68;;;;;;;;;;2024370;29;20568;-89
2022/08/28 02:09:35;;;;;;;6.88;4.00;;;;;;;;;;2009266;29;20116;-89
2022/08/28 02:10:38;;;;;;;15.18;4.47;;;;;;;;;;2016940;29;20346;-89
2022/08/28 02:11:41;;;;;;;6.22;4.07;;;;;;;;;;2016559;29;20040;-89
2022/08/28 02:12:42;;;;;;;8.73;4.85;;;;;;;;;;1680213;29;9999863;-89
2022/08/28 02:13:43;;;;;;;11.85;4.70;;;;;;;;;;2025182;29;20032;-89
2022/08/28 02:14:43;;;;;;;6.20;4.00;;;;;;;;;;2025176;29;20036;-89
2022/08/28 02:15:44;;;;;;;10.02;3.92;;;;;;;;;;2025153;29;20020;-90
2022/08/28 02:16:45;;;;;;;8.50;4.85;;;;;;;;;;2024495;29;20032;-89
2022/08/28 02:17:46;;;;;;;7.28;4.30;;;;;;;;;;2024583;29;20515;-90
2022/08/28 02:18:47;;;;;;;7.57;4.20;;;;;;;;;;2024664;29;20211;-89
2022/08/28 02:19:48;;;;;;;6.95;4.30;;;;;;;;;;2024478;29;20117;-89
2022/08/28 02:20:48;;;;;;;8.35;4.53;;;;;;;;;;2024538;29;20025;-89
2022/08/28 02:21:49;;;;;;;7.50;4.68;;;;;;;;;;2025097;29;20036;-89
2022/08/28 02:22:50;;;;;;;6.40;3.83;;;;;;;;;;2024374;29;20067;-89
2022/08/28 02:23:51;;;;;;;5.57;4.43;;;;;;;;;;2024278;29;20024;-89
2022/08/28 02:24:51;;;;;;;9.40;4.47;;;;;;;;;;2025168;29;20108;-89
2022/08/28 02:25:52;;;;;;;7.65;3.72;;;;;;;;;;2016689;29;20494;-89
2022/08/28 02:26:52;;;;;;;8.07;4.28;;;;;;;;;;2008921;29;20694;-90
2022/08/28 02:27:53;;;;;;;7.20;4.25;;;;;;;;;;2016564;29;20031;-89
2022/08/28 02:28:53;;;;;;;5.22;4.10;;;;;;;;;;2024348;29;20797;-89
2022/08/28 02:29:54;;;;;;;7.60;4.32;;;;;;;;;;2016753;29;20116;-89
2022/08/28 02:30:54;;;;;;;10.27;4.32;;;;;;;;;;2016676;29;20044;-89
2022/08/28 02:31:55;;;;;;;12.15;4.07;;;;;;;;;;2024381;29;20445;-89
2022/08/28 02:32:55;;;;;;;9.32;4.35;;;;;;;;;;2016579;29;20036;-89
2022/08/28 02:33:55;;;;;;;12.55;4.25;;;;;;;;;;2016873;29;20173;-89
2022/08/28 02:34:56;;;;;;;9.70;4.22;;;;;;;;;;2025057;29;20083;-89
2022/08/28 02:35:56;;;;;;;10.27;5.03;;;;;;;;;;2016509;29;20409;-90
2022/08/28 02:36:57;;;;;;;6.32;4.57;;;;;;;;;;2008840;29;20030;-89
2022/08/28 02:37:57;;;;;;;9.40;4.60;;;;;;;;;;2008951;29;20029;-89
2022/08/28 02:38:58;;;;;;;10.68;4.38;;;;;;;;;;2016647;29;20021;-89
2022/08/28 02:39:59;;;;;;;9.68;4.18;;;;;;;;;;2016768;29;20029;-89
2022/08/28 02:40:59;;;;;;;12.13;4.60;;;;;;;;;;2016913;29;20034;-89
2022/08/28 02:42:00;;;;;;;9.32;4.45;;;;;;;;;;2025157;29;20523;-88
2022/08/28 02:43:00;;;;;;;10.43;4.53;;;;;;;;;;2017342;29;20033;-89
2022/08/28 02:44:01;;;;;;;8.98;4.28;;;;;;;;;;2017651;29;20116;-88
2022/08/28 02:45:02;;;;;;;15.18;4.75;;;;;;;;;;2017501;29;20060;-89
2022/08/28 02:46:03;;;;;;;7.80;4.18;;;;;;;;;;2024413;29;20472;-88
2022/08/28 02:47:04;;;;;;;6.15;4.50;;;;;;;;;;2024322;29;20024;-88
2022/08/28 02:48:05;;;;;;;13.32;5.00;;;;;;;;;;2016639;29;20481;-88
2022/08/28 02:49:05;;;;;;;10.70;4.60;;;;;;;;;;2009068;29;20088;-87
2022/08/28 02:50:06;;;;;;;7.00;3.97;;;;;;;;;;2008892;29;20033;-87
2022/08/28 02:51:10;;;;;;;7.65;4.18;;;;;;;;;;2016672;29;20071;-87
2022/08/28 02:52:11;;;;;;;8.95;4.25;;;;;;;;;;2024301;29;20040;-88
2022/08/28 02:53:12;;;;;;;11.90;4.40;;;;;;;;;;2024541;29;20104;-88
2022/08/28 02:54:12;;;;;;;7.38;4.50;;;;;;;;;;2024937;29;20480;-88
2022/08/28 02:55:15;;;;;;;11.77;4.93;;;;;;;;;;2016664;29;20032;-88
2022/08/28 02:56:18;;;;;;;9.32;4.88;;;;;;;;;;2016870;29;20074;-88
2022/08/28 02:57:18;;;;;;;11.07;4.50;;;;;;;;;;2016790;29;20108;-88
2022/08/28 02:58:19;;;;;;;9.45;5.07;;;;;;;;;;2017419;29;20389;-89
2022/08/28 02:59:19;;;;;;;10.07;5.68;;;;;;;;;;2025251;29;20052;-88
2022/08/28 03:00:24;;;;;;;7.82;4.50;;;;;;;;;;2025555;29;20457;-88
2022/08/28 03:01:25;;;;;;;9.98;4.80;;;;;;;;;;2024663;29;20059;-88
2022/08/28 03:02:26;;;;;;;7.10;4.65;;;;;;;;;;1667915;29;10356408;-88
2022/08/28 03:03:29;;;;;;;11.30;5.90;;;;;;;;;;2016571;29;20120;-88
2022/08/28 03:04:30;;;;;;;10.35;4.68;;;;;;;;;;2016834;29;20021;-88
2022/08/28 03:05:30;;;;;;;9.20;4.68;;;;;;;;;;2017484;29;20456;-89
2022/08/28 03:06:31;;;;;;;7.60;4.72;;;;;;;;;;2018239;29;20060;-89
2022/08/28 03:07:32;;;;;;;8.48;4.35;;;;;;;;;;2025725;29;20373;-88
2022/08/28 03:08:32;;;;;;;8.95;4.53;;;;;;;;;;2018031;29;20039;-88
2022/08/28 03:09:34;;;;;;;7.57;5.28;;;;;;;;;;2018056;29;20114;-89
2022/08/28 03:10:34;;;;;;;9.98;5.10;;;;;;;;;;2026627;29;20032;-89
2022/08/28 03:11:35;;;;;;;12.48;5.20;;;;;;;;;;2018038;29;20039;-88
2022/08/28 03:12:37;;;;;;;11.80;5.03;;;;;;;;;;2018274;29;20116;-88
2022/08/28 03:13:37;;;;;;;10.10;4.85;;;;;;;;;;2018107;29;20097;-89
2022/08/28 03:14:38;;;;;;;11.18;5.13;;;;;;;;;;2018063;29;20149;-87
2022/08/28 03:15:42;;;;;;;9.68;4.72;;;;;;;;;;2017971;29;20029;-87
2022/08/28 03:16:42;;;;;;;12.25;5.00;;;;;;;;;;2018419;29;20057;-87
2022/08/28 03:17:43;;;;;;;10.60;5.22;;;;;;;;;;2026376;29;20036;-87
2022/08/28 03:18:44;;;;;;;10.38;5.28;;;;;;;;;;2026315;29;20028;-87
2022/08/28 03:19:44;;;;;;;8.82;4.80;;;;;;;;;;2026358;29;20058;-88
2022/08/28 03:20:45;;;;;;;13.75;5.13;;;;;;;;;;2026342;29;20104;-87
2022/08/28 03:21:46;;;;;;;8.75;4.70;;;;;;;;;;2026355;29;20472;-88
2022/08/28 03:24:13;;;;;;;7.47;4.50;;;;;;;;;;2025884;29;20020;-88
2022/08/28 03:25:14;;;;;;;7.82;4.88;;;;;;;;;;2035863;29;20020;-87
2022/08/28 03:26:17;;;;;;;13.43;5.75;;;;;;;;;;2030709;29;21013;-87
2022/08/28 03:27:17;;;;;;;8.68;4.40;;;;;;;;;;2025630;29;20132;-87
2022/08/28 03:28:18;;;;;;;8.88;4.78;;;;;;;;;;2017505;29;20457;-87
2022/08/28 03:29:18;;;;;;;8.45;4.18;;;;;;;;;;2010276;29;20158;-88
2022/08/28 03:30:20;;;;;;;10.23;4.60;;;;;;;;;;2010314;29;20026;-90
2022/08/28 03:31:23;;;;;;;8.10;4.43;;;;;;;;;;2017802;29;20029;-89
2022/08/28 03:32:25;;;;;;;7.88;4.63;;;;;;;;;;2025452;29;20024;-89
2022/08/28 03:33:26;;;;;;;7.68;4.55;;;;;;;;;;2025628;29;20369;-89
2022/08/28 03:34:27;;;;;;;10.15;4.97;;;;;;;;;;2026262;29;20104;-88
2022/08/28 03:35:27;;;;;;;6.75;4.57;;;;;;;;;;1679154;29;10263411;-89
2022/08/28 03:36:28;;;;;;;13.60;5.15;;;;;;;;;;2026450;29;20547;-89
2022/08/28 03:37:28;;;;;;;7.18;4.53;;;;;;;;;;2026210;29;20032;-89
2022/08/28 03:38:29;;;;;;;8.63;4.53;;;;;;;;;;2026129;29;20122;-89
2022/08/28 03:39:29;;;;;;;12.65;4.82;;;;;;;;;;2017486;29;20062;-89
2022/08/28 03:40:31;;;;;;;8.40;4.97;;;;;;;;;;2017970;29;20025;-89
2022/08/28 03:41:32;;;;;;;8.63;4.40;;;;;;;;;;2025534;29;20535;-88
2022/08/28 03:42:33;;;;;;;12.30;4.78;;;;;;;;;;2025518;29;20032;-88
2022/08/28 03:43:34;;;;;;;9.13;5.18;;;;;;;;;;2017619;29;20108;-88
2022/08/28 03:44:36;;;;;;;10.75;5.22;;;;;;;;;;2017539;29;20512;-88
2022/08/28 03:45:37;;;;;;;8.48;4.47;;;;;;;;;;2025224;29;20028;-88
2022/08/28 03:46:38;;;;;;;9.88;6.18;;;;;;;;;;2025358;29;20119;-88
2022/08/28 03:47:40;;;;;;;13.07;4.78;;;;;;;;;;2025353;29;20062;-88
2022/08/28 03:48:41;;;;;;;7.65;4.70;;;;;;;;;;2025508;29;20068;-88
2022/08/28 03:49:43;;;;;;;9.95;5.03;;;;;;;;;;2026049;29;20040;-88
2022/08/28 03:50:44;;;;;;;11.07;5.35;;;;;;;;;;2026148;29;20589;-88
2022/08/28 03:51:44;;;;;;;9.68;4.20;;;;;;;;;;1681723;29;10163956;-88
2022/08/28 03:52:45;;;;;;;10.23;4.68;;;;;;;;;;1668004;29;10383346;-89
2022/08/28 03:53:46;;;;;;;10.80;5.20;;;;;;;;;;2017871;29;20025;-88
2022/08/28 03:54:46;;;;;;;11.43;5.03;;;;;;;;;;2025392;29;20028;-88
2022/08/28 03:55:49;;;;;;;7.70;4.30;;;;;;;;;;2025487;29;20101;-87
2022/08/28 03:56:50;;;;;;;7.80;4.88;;;;;;;;;;2025435;29;20037;-87
2022/08/28 03:57:51;;;;;;;11.50;5.55;;;;;;;;;;2025975;29;20107;-87
2022/08/28 03:58:55;;;;;;;10.13;4.97;;;;;;;;;;2017566;29;20142;-88
2022/08/28 03:59:56;;;;;;;13.07;4.63;;;;;;;;;;2018193;29;20032;-88
2022/08/28 04:00:56;;;;;;;12.27;5.53;;;;;;;;;;2025474;29;20431;-88
2022/08/28 04:01:57;;;;;;;11.75;4.35;;;;;;;;;;2026104;29;20017;-89
2022/08/28 04:02:57;;;;;;;9.73;5.03;;;;;;;;;;2026084;29;20111;-88
2022/08/28 04:03:58;;;;;;;7.60;5.22;;;;;;;;;;2025940;29;20029;-87
2022/08/28 04:04:58;;;;;;;10.68;5.47;;;;;;;;;;2025211;29;20020;-87
2022/08/28 04:05:59;;;;;;;12.18;5.20;;;;;;;;;;2024995;29;20060;-87
2022/08/28 04:06:59;;;;;;;12.27;5.43;;;;;;;;;;2017453;29;20032;-87
2022/08/28 04:08:01;;;;;;;10.68;5.18;;;;;;;;;;2017417;29;20064;-87
2022/08/28 04:09:02;;;;;;;7.85;4.72;;;;;;;;;;2017517;29;20065;-88
2022/08/28 04:10:03;;;;;;;10.07;5.25;;;;;;;;;;2018908;29;20081;-88
2022/08/28 04:11:04;;;;;;;9.75;4.97;;;;;;;;;;2023815;29;20052;-88
2022/08/28 04:12:06;;;;;;;10.57;5.53;;;;;;;;;;2017649;29;20017;-88
2022/08/28 04:13:06;;;;;;;9.95;5.50;;;;;;;;;;2017678;29;20059;-87
2022/08/28 04:14:07;;;;;;;10.20;5.30;;;;;;;;;;2017719;29;20450;-88
2022/08/28 04:15:09;;;;;;;8.23;5.00;;;;;;;;;;2025281;29;20024;-87
2022/08/28 04:16:11;;;;;;;8.45;5.18;;;;;;;;;;2025383;29;20052;-88
2022/08/28 04:17:12;;;;;;;7.68;4.60;;;;;;;;;;2016660;29;20057;-88
2022/08/28 04:18:12;;;;;;;8.20;4.70;;;;;;;;;;2025319;29;20032;-89
2022/08/28 04:19:12;;;;;;;9.45;5.10;;;;;;;;;;2033484;29;20031;-89
2022/08/28 04:20:13;;;;;;;6.50;4.93;;;;;;;;;;2025186;29;20024;-88
2022/08/28 04:21:20;;;;;;;7.88;4.57;;;;;;;;;;2017473;29;20147;-88
2022/08/28 04:22:20;;;;;;;7.80;5.03;;;;;;;;;;2018170;29;20052;-88
2022/08/28 04:23:22;;;;;;;7.60;4.68;;;;;;;;;;2025112;29;20156;-88
2022/08/28 04:24:22;;;;;;;12.40;4.95;;;;;;;;;;2033295;29;20034;-89
2022/08/28 04:25:22;;;;;;;11.45;4.63;;;;;;;;;;2033564;29;20036;-88
2022/08/28 04:26:26;;;;;;;9.07;5.38;;;;;;;;;;2025075;29;20169;-88
2022/08/28 04:27:26;;;;;;;9.73;5.00;;;;;;;;;;2017103;29;20107;-88
2022/08/28 04:28:27;;;;;;;7.68;5.00;;;;;;;;;;2013198;29;20052;-88
2022/08/28 04:29:29;;;;;;;10.82;5.00;;;;;;;;;;2012738;29;20508;-88
2022/08/28 04:30:29;;;;;;;9.75;5.03;;;;;;;;;;2013625;29;20041;-88
2022/08/28 04:31:38;;;;;;;;;;;;;;;;;;1679794;29;10184951;-95
2022/08/28 04:32:40;;;;;;;12.25;5.05;;;;;;;;;;2026229;29;19964;-96
2022/08/28 04:33:41;;;;;;;8.55;4.47;;;;;;;;;;2018200;29;20112;-94
2022/08/28 04:34:41;;;;;;;11.25;4.90;;;;;;;;;;2018153;29;20029;-94
2022/08/28 04:35:42;;;;;;;12.02;4.80;;;;;;;;;;2018980;29;20028;-94
2022/08/28 04:36:43;;;;;;;9.88;5.75;;;;;;;;;;2019401;29;20059;-95
2022/08/28 04:37:47;;;;;;;9.55;4.85;;;;;;;;;;2019141;29;20431;-95
2022/08/28 04:38:48;;;;;;;7.70;4.85;;;;;;;;;;2018725;29;20032;-96
2022/08/28 04:39:52;;;;;;;6.68;4.15;;;;;;;;;;2018243;29;20528;-88
2022/08/28 04:40:55;;;;;;;8.25;4.63;;;;;;;;;;2018197;29;20522;-94
2022/08/28 04:41:55;;;;;;;8.98;4.60;;;;;;;;;;2011169;29;20116;-89
2022/08/28 04:42:55;;;;;;;9.68;4.47;;;;;;;;;;2025693;29;20025;-88
2022/08/28 04:44:24;;;;;;;7.55;4.82;;;;;;;;;;2021500;29;20024;-88
2022/08/28 04:45:25;;;;;;;8.18;3.83;;;;;;;;;;2018782;29;20883;-89
2022/08/28 04:46:25;;;;;;;9.07;4.57;;;;;;;;;;2018062;29;20041;-96
2022/08/28 04:47:26;;;;;;;11.00;4.78;;;;;;;;;;2020646;29;20039;-96
2022/08/28 04:48:29;;;;;;;6.28;4.45;;;;;;;;;;2025906;29;20029;-96
2022/08/28 04:49:29;;;;;;;6.43;3.85;;;;;;;;;;2025548;29;20104;-95
2022/08/28 04:50:30;;;;;;;7.68;4.25;;;;;;;;;;2017938;29;20507;-96
2022/08/28 04:51:31;;;;;;;7.35;3.67;;;;;;;;;;2017991;29;20485;-96
2022/08/28 04:52:33;;;;;;;6.90;4.25;;;;;;;;;;2028122;29;20425;-96
2022/08/28 04:53:45;;;;;;;7.30;3.65;;;;;;;;;;2021557;29;20036;-96
2022/08/28 04:54:48;;;;;;;9.02;4.07;;;;;;;;;;2024095;29;20025;-96
2022/08/28 05:06:01;;;;;;;5.57;3.70;;;;;;;;;;1483170;23;21271;-90
2022/08/28 05:07:02;;;;;;;7.38;3.95;;;;;;;;;;2025295;29;20435;-91
2022/08/28 05:08:03;;;;;;;10.10;4.20;;;;;;;;;;2026298;29;20053;-91
2022/08/28 05:09:05;;;;;;;8.45;4.18;;;;;;;;;;2024836;29;20488;-89
2022/08/28 05:11:18;;;;;;;8.43;4.18;;;;;;;;;;2016410;29;20120;-89
2022/08/28 05:12:19;;;;;;;6.47;4.15;;;;;;;;;;2016671;29;20032;-90
2022/08/28 05:13:20;;;;;;;8.57;3.97;;;;;;;;;;2023059;29;20546;-89
2022/08/28 05:14:21;;;;;;;8.65;4.28;;;;;;;;;;2024821;29;20032;-90
2022/08/28 05:15:21;;;;;;;10.00;3.67;;;;;;;;;;2025101;29;20507;-90
2022/08/28 05:16:22;;;;;;;7.68;4.20;;;;;;;;;;2032653;29;20032;-90
2022/08/28 05:17:22;;;;;;;10.75;4.40;;;;;;;;;;2040515;29;20131;-90
2022/08/28 05:18:23;;;;;;;6.40;4.07;;;;;;;;;;2032597;29;20032;-91
2022/08/28 05:19:26;;;;;;;4.93;3.50;;;;;;;;;;2024798;29;20511;-90
2022/08/28 05:20:27;;;;;;;5.15;4.22;;;;;;;;;;2033283;29;20100;-90
2022/08/28 05:21:27;;;;;;;8.45;4.43;;;;;;;;;;2024477;29;20175;-91
2022/08/28 05:22:30;;;;;;;7.57;3.60;;;;;;;;;;2024134;29;20039;-90
2022/08/28 05:23:30;;;;;;;7.57;4.57;;;;;;;;;;2024660;29;20589;-90
2022/08/28 05:24:31;;;;;;;7.07;3.63;;;;;;;;;;2024808;29;20087;-91
2022/08/28 05:25:36;;;;;;;8.05;4.13;;;;;;;;;;2016752;29;20071;-90
2022/08/28 05:26:39;;;;;;;5.75;3.75;;;;;;;;;;2017822;29;20080;-90
2022/08/28 05:27:40;;;;;;;5.38;3.60;;;;;;;;;;2025454;29;20377;-89
2022/08/28 05:28:40;;;;;;;8.13;4.03;;;;;;;;;;2032324;29;20083;-90
2022/08/28 05:29:41;;;;;;;9.40;3.55;;;;;;;;;;2031143;29;20035;-90
2022/08/28 05:30:42;;;;;;;8.00;3.78;;;;;;;;;;2020883;29;20032;-91
2022/08/28 05:31:43;;;;;;;6.40;3.53;;;;;;;;;;2024514;29;20104;-90
2022/08/28 05:32:43;;;;;;;7.18;3.53;;;;;;;;;;2032758;29;20043;-90
2022/08/28 05:33:46;;;;;;;5.25;3.30;;;;;;;;;;2031559;29;20451;-90
2022/08/28 05:34:46;;;;;;;4.85;3.50;;;;;;;;;;2017480;29;20036;-89
2022/08/28 05:35:47;;;;;;;5.75;3.65;;;;;;;;;;2017173;29;20041;-90
2022/08/28 05:36:47;;;;;;;6.95;4.22;;;;;;;;;;2017229;29;20041;-89
2022/08/28 05:37:49;;;;;;;6.57;3.80;;;;;;;;;;2025587;29;20039;-90
2022/08/28 05:38:50;;;;;;;6.45;3.42;;;;;;;;;;2016499;29;20041;-90
2022/08/28 05:39:50;;;;;;;6.68;3.50;;;;;;;;;;2028828;29;20020;-89
2022/08/28 05:40:51;;;;;;;7.65;3.63;;;;;;;;;;2040372;29;20098;-90
2022/08/28 05:41:51;;;;;;;9.13;3.80;;;;;;;;;;2032626;29;20032;-89
2022/08/28 05:42:52;;;;;;;6.68;3.22;;;;;;;;;;2018923;29;20036;-89
2022/08/28 05:43:52;;;;;;;7.60;3.53;;;;;;;;;;2024918;29;20188;-90
2022/08/28 05:44:53;;;;;;;6.43;3.33;;;;;;;;;;2025025;29;20063;-91
2022/08/28 05:45:58;;;;;;;6.70;3.00;;;;;;;;;;2033405;29;20107;-90
2022/08/28 05:46:59;;;;;;;6.05;3.05;;;;;;;;;;2033352;29;20036;-90
2022/08/28 05:47:59;;;;;;;7.35;3.35;;;;;;;;;;2024892;29;20141;-90
2022/08/28 05:49:00;;;;;;;7.22;3.25;;;;;;;;;;2024226;29;20024;-89
2022/08/28 05:50:00;;;;;;;6.60;3.38;;;;;;;;;;2032372;29;20034;-90
2022/08/28 05:51:19;;;;;;;5.72;3.25;;;;;;;;;;2032487;29;20551;-91
2022/08/28 05:52:19;;;;;;;6.45;3.17;;;;;;;;;;2023963;29;20116;-91
2022/08/28 05:53:19;;;;;;;7.47;3.10;;;;;;;;;;2024131;29;20061;-91
2022/08/28 05:54:20;;;;;;;9.93;3.55;;;;;;;;;;2032558;29;20066;-90
2022/08/28 05:55:23;;;;;;;7.82;3.55;;;;;;;;;;2032386;29;20043;-90
2022/08/28 05:56:28;;;;;;;7.22;3.72;;;;;;;;;;2039716;29;20459;-90
2022/08/28 05:57:29;;;;;;;7.20;3.63;;;;;;;;;;2039619;29;20471;-90
2022/08/28 05:58:30;;;;;;;7.07;3.90;;;;;;;;;;2033012;29;20055;-90
2022/08/28 05:59:30;;;;;;;9.25;3.20;;;;;;;;;;2024691;29;20052;-90
2022/08/28 06:00:31;;;;;;;6.13;3.10;;;;;;;;;;2024622;29;20059;-90
2022/08/28 06:01:35;;;;;;;5.63;3.35;;;;;;;;;;2024598;29;20225;-90
2022/08/28 06:02:36;;;;;;;6.20;3.17;;;;;;;;;;2017525;29;20472;-89
2022/08/28 06:03:37;;;;;;;7.38;3.40;;;;;;;;;;2025796;29;20024;-90
2022/08/28 06:04:39;;;;;;;4.65;3.22;;;;;;;;;;2042073;29;20545;-90
2022/08/28 06:05:39;;;;;;;8.20;4.40;;;;;;;;;;2033125;29;20103;-90
2022/08/28 06:06:41;;;;;;;7.85;3.20;;;;;;;;;;2025026;29;20029;-91
2022/08/28 06:07:42;;;;;;;7.95;3.40;;;;;;;;;;2024415;29;20040;-91
2022/08/28 06:08:42;;;;;;;8.60;3.40;;;;;;;;;;2023818;29;20044;-91
2022/08/28 06:09:43;;;;;;;4.97;3.47;;;;;;;;;;2024768;29;20029;-91
2022/08/28 06:10:44;;;;;;;7.03;3.50;;;;;;;;;;2016807;29;20068;-91
2022/08/28 06:11:45;;;;;;;9.95;3.80;;;;;;;;;;2024572;29;20036;-91
2022/08/28 06:12:45;;;;;;;10.90;3.65;;;;;;;;;;2024803;29;20126;-91
2022/08/28 06:13:46;;;;;;;7.00;3.65;;;;;;;;;;2026542;29;20591;-91
2022/08/28 06:14:46;;;;;;;5.30;3.78;;;;;;;;;;2040117;29;20466;-91
2022/08/28 06:15:50;;;;;;;4.97;3.67;;;;;;;;;;2040100;29;20759;-91
2022/08/28 06:16:53;;;;;;;7.53;3.83;;;;;;;;;;2036830;29;20111;-91
2022/08/28 06:17:54;;;;;;;9.52;4.03;;;;;;;;;;2024459;29;20033;-91
2022/08/28 06:18:56;;;;;;;9.52;3.40;;;;;;;;;;2024757;29;20052;-91
2022/08/28 06:19:56;;;;;;;5.43;3.10;;;;;;;;;;1681097;29;10360002;-91
2022/08/28 06:21:00;;;;;;;10.02;3.35;;;;;;;;;;2032403;29;20024;-90
2022/08/28 06:22:03;;;;;;;5.90;3.03;;;;;;;;;;2032096;29;20099;-90
2022/08/28 06:23:03;;;;;;;9.50;3.95;;;;;;;;;;2025188;29;20024;-90
2022/08/28 06:24:05;;;;;;;7.30;3.25;;;;;;;;;;2031986;29;20031;-92